Time;durP1;ratioP1;P1;durP2;ratioP2;P2;SDS_P1;SDS_P2;PMS_P1;PMS_P2;Temp;Humidity;BMP_temperature;BMP_pressure;BME280_temperature;BME280_humidity;BME280_pressure;Samples;Min_cycle;Max_cycle;Signal;HPM_P1;HPM_P2
2024/01/30 00:00:12;;;;;;;;;;;6.90;82.90;;;;;;4153643;28;19925;-80
2024/01/30 00:02:33;;;;;;;;;;;6.90;83.00;;;;;;4153554;28;19925;-79
2024/01/30 00:04:54;;;;;;;;;;;7.00;83.30;;;;;;4148955;28;19948;-79
2024/01/30 00:07:14;;;;;;;;;;;6.90;83.30;;;;;;4149259;28;20016;-80
2024/01/30 00:09:15;;;;;;;;;;;7.00;83.20;;;;;;4152564;28;19956;-80
2024/01/30 00:11:16;;;;;;;;;;;7.10;83.20;;;;;;4148607;28;19988;-80
2024/01/30 00:13:18;;;;;;;;;;;6.90;83.10;;;;;;4154433;28;19927;-80
2024/01/30 00:15:19;;;;;;;;;;;6.90;83.20;;;;;;4151444;28;19921;-80
2024/01/30 00:17:20;;;;;;;;;;;7.10;83.20;;;;;;4149305;28;20043;-79
2024/01/30 00:19:21;;;;;;;;;;;7.10;83.20;;;;;;4148757;28;20546;-80
2024/01/30 00:21:22;;;;;;;;;;;7.00;83.20;;;;;;4150145;28;20319;-80
2024/01/30 00:23:43;;;;;;;;;;;7.00;83.30;;;;;;4151844;28;19921;-80
2024/01/30 00:26:05;;;;;;;;;;;6.90;83.20;;;;;;4151051;28;19921;-80
2024/01/30 00:28:25;;;;;;;;;;;6.90;83.00;;;;;;4154461;28;20296;-80
2024/01/30 00:30:46;;;;;;;;;;;7.00;83.10;;;;;;4152489;28;20326;-80
2024/01/30 00:33:06;;;;;;;;;;;6.90;83.00;;;;;;4151715;28;19920;-80
2024/01/30 00:35:27;;;;;;;;;;;6.90;83.00;;;;;;4151353;28;19921;-80
2024/01/30 00:37:48;;;;;;;;;;;7.00;83.00;;;;;;4153635;28;19921;-81
2024/01/30 00:40:10;;;;;;;;;;;6.90;83.00;;;;;;4155759;28;19956;-80
2024/01/30 00:42:30;;;;;;;;;;;6.90;82.90;;;;;;4152645;28;20743;-80
2024/01/30 00:44:51;;;;;;;;;;;6.90;82.90;;;;;;4156501;28;19921;-81
2024/01/30 00:47:11;;;;;;;;;;;6.90;82.90;;;;;;4153388;28;20026;-81
2024/01/30 00:49:32;;;;;;;;;;;6.90;82.90;;;;;;4150637;28;20000;-80
2024/01/30 00:51:33;;;;;;;;;;;7.00;83.10;;;;;;4150699;28;19921;-81
2024/01/30 00:53:33;;;;;;;;;;;6.90;83.00;;;;;;4153727;28;19921;-81
2024/01/30 00:55:34;;;;;;;;;;;6.90;83.00;;;;;;4154867;28;19921;-80
2024/01/30 00:57:35;;;;;;;;;;;6.90;83.00;;;;;;4153205;28;19931;-80
2024/01/30 00:59:36;;;;;;;;;;;6.90;82.90;;;;;;4153169;28;19917;-80
2024/01/30 01:01:44;;;;;;;;;;;6.90;83.00;;;;;;4155554;28;20008;-81
2024/01/30 01:04:05;;;;;;;;;;;7.00;83.00;;;;;;4154064;28;19935;-80
2024/01/30 01:06:05;;;;;;;;;;;7.00;83.10;;;;;;4150847;28;19949;-80
2024/01/30 01:08:26;;;;;;;;;;;7.00;83.10;;;;;;4152359;28;20634;-81
2024/01/30 01:10:30;;;;;;;;;;;7.10;83.20;;;;;;4134863;28;19968;-80
2024/01/30 01:12:51;;;;;;;;;;;7.00;83.10;;;;;;4146475;28;20177;-80
2024/01/30 01:15:12;;;;;;;;;;;7.00;83.20;;;;;;4150024;28;21192;-80
2024/01/30 01:17:32;;;;;;;;;;;7.00;83.20;;;;;;4151998;28;20306;-80
2024/01/30 01:19:52;;;;;;;;;;;7.00;83.20;;;;;;4157373;28;19921;-80
2024/01/30 01:22:13;;;;;;;;;;;7.00;83.20;;;;;;4161278;28;19925;-81
2024/01/30 01:24:34;;;;;;;;;;;7.00;83.20;;;;;;4156360;28;20011;-81
2024/01/30 01:26:55;;;;;;;;;;;7.00;83.20;;;;;;4152610;28;21090;-81
2024/01/30 01:29:16;;;;;;;;;;;7.00;83.20;;;;;;4155926;28;19921;-80
2024/01/30 01:31:39;;;;;;;;;;;7.00;83.20;;;;;;4152482;28;19932;-81
2024/01/30 01:33:41;;;;;;;;;;;7.00;83.20;;;;;;4134550;28;19922;-81
2024/01/30 01:35:41;;;;;;;;;;;7.00;83.30;;;;;;4147533;28;19928;-81
2024/01/30 01:37:42;;;;;;;;;;;7.00;83.20;;;;;;4149920;28;20382;-80
2024/01/30 01:39:43;;;;;;;;;;;7.00;83.20;;;;;;4154991;28;19928;-81
2024/01/30 01:41:43;;;;;;;;;;;7.10;83.30;;;;;;4157028;28;19924;-80
2024/01/30 01:44:05;;;;;;;;;;;7.10;83.30;;;;;;4157702;28;20577;-81
2024/01/30 01:46:30;;;;;;;;;;;7.10;83.30;;;;;;4155286;28;20602;-80
2024/01/30 01:48:51;;;;;;;;;;;7.00;83.30;;;;;;4153566;28;19939;-81
2024/01/30 01:51:11;;;;;;;;;;;7.10;83.30;;;;;;4155277;28;19909;-81
2024/01/30 01:53:32;;;;;;;;;;;7.10;83.40;;;;;;4153150;28;20708;-82
2024/01/30 01:55:54;;;;;;;;;;;7.00;83.30;;;;;;4155954;28;20377;-81
2024/01/30 01:58:14;;;;;;;;;;;7.10;83.30;;;;;;4156709;28;20330;-81
2024/01/30 02:00:15;;;;;;;;;;;7.10;83.30;;;;;;4153981;28;20022;-81
2024/01/30 02:02:17;;;;;;;;;;;7.10;83.30;;;;;;4152671;28;19925;-81
2024/01/30 02:04:18;;;;;;;;;;;7.10;83.30;;;;;;4153688;28;19921;-82
2024/01/30 02:06:19;;;;;;;;;;;7.10;83.20;;;;;;4148493;28;20032;-82
2024/01/30 02:08:20;;;;;;;;;;;7.10;83.30;;;;;;4138307;28;21500;-82
2024/01/30 02:10:41;;;;;;;;;;;7.20;83.30;;;;;;4155547;28;19949;-80
2024/01/30 02:13:01;;;;;;;;;;;7.10;83.30;;;;;;4155586;28;21292;-81
2024/01/30 02:15:13;;;;;;;;;;;7.10;83.40;;;;;;4154952;28;19928;-80
2024/01/30 02:17:33;;;;;;;;;;;7.20;83.50;;;;;;4151803;28;19984;-81
2024/01/30 02:19:54;;;;;;;;;;;7.20;83.50;;;;;;4151480;28;19921;-81
2024/01/30 02:22:14;;;;;;;;;;;7.20;83.50;;;;;;4152493;28;20087;-81
2024/01/30 02:24:35;;;;;;;;;;;7.20;83.50;;;;;;4154265;28;19960;-81
2024/01/30 02:26:55;;;;;;;;;;;7.20;83.50;;;;;;4152222;28;19927;-79
2024/01/30 02:29:15;;;;;;;;;;;7.20;83.50;;;;;;4153787;28;20366;-81
2024/01/30 02:31:36;;;;;;;;;;;7.20;83.50;;;;;;4151921;28;19967;-81
2024/01/30 02:33:56;;;;;;;;;;;7.30;83.60;;;;;;4154071;28;20649;-81
2024/01/30 02:36:17;;;;;;;;;;;7.20;83.60;;;;;;4149627;28;20342;-81
2024/01/30 02:38:37;;;;;;;;;;;7.20;83.60;;;;;;4153932;28;19995;-80
2024/01/30 02:40:58;;;;;;;;;;;7.20;83.50;;;;;;4152982;28;20275;-80
2024/01/30 02:43:18;;;;;;;;;;;7.20;83.40;;;;;;4152155;28;20149;-79
2024/01/30 02:45:39;;;;;;;;;;;7.20;83.50;;;;;;4155317;28;20318;-80
2024/01/30 02:47:59;;;;;;;;;;;7.30;83.50;;;;;;4150228;28;20099;-79
2024/01/30 02:50:19;;;;;;;;;;;7.30;83.50;;;;;;4154146;28;19921;-79
2024/01/30 02:52:20;;;;;;;;;;;7.20;83.50;;;;;;4153264;28;19929;-79
2024/01/30 02:54:20;;;;;;;;;;;7.20;83.50;;;;;;4154262;28;19928;-78
2024/01/30 02:56:21;;;;;;;;;;;7.30;83.50;;;;;;4153236;28;19932;-78
2024/01/30 02:58:27;;;;;;;;;;;7.30;83.60;;;;;;4145717;28;20441;-78
2024/01/30 03:00:28;;;;;;;;;;;7.30;83.50;;;;;;4153314;28;19921;-79
2024/01/30 03:02:29;;;;;;;;;;;7.30;83.60;;;;;;4154819;28;19925;-79
2024/01/30 03:04:30;;;;;;;;;;;7.30;83.60;;;;;;4156030;28;20429;-78
2024/01/30 03:06:50;;;;;;;;;;;7.30;83.50;;;;;;4145457;28;22919;-78
2024/01/30 03:08:51;;;;;;;;;;;7.40;83.70;;;;;;4133797;28;21598;-78
2024/01/30 03:11:12;;;;;;;;;;;7.30;83.60;;;;;;4154647;28;19927;-78
2024/01/30 03:13:32;;;;;;;;;;;7.30;83.60;;;;;;4159613;28;19921;-80
2024/01/30 03:15:53;;;;;;;;;;;7.30;83.50;;;;;;4156567;28;20292;-80
2024/01/30 03:18:13;;;;;;;;;;;7.30;83.50;;;;;;4151771;28;19924;-80
2024/01/30 03:20:34;;;;;;;;;;;7.30;83.50;;;;;;4152170;28;20518;-80
2024/01/30 03:22:55;;;;;;;;;;;7.30;83.60;;;;;;4150900;28;20297;-80
2024/01/30 03:25:15;;;;;;;;;;;7.30;83.50;;;;;;4151742;28;20363;-80
2024/01/30 03:27:36;;;;;;;;;;;7.30;83.50;;;;;;4152389;28;20408;-81
2024/01/30 03:29:38;;;;;;;;;;;7.30;83.60;;;;;;4150758;28;19913;-81
2024/01/30 03:31:39;;;;;;;;;;;7.40;83.60;;;;;;4152445;28;19932;-81
2024/01/30 03:33:39;;;;;;;;;;;7.30;83.50;;;;;;4154218;28;20515;-80
2024/01/30 03:35:40;;;;;;;;;;;7.30;83.60;;;;;;4157177;28;19950;-80
2024/01/30 03:37:41;;;;;;;;;;;7.30;83.60;;;;;;4150996;28;19925;-80
2024/01/30 03:39:41;;;;;;;;;;;7.40;83.60;;;;;;4154924;28;19917;-80
2024/01/30 03:41:43;;;;;;;;;;;7.40;83.50;;;;;;4154265;28;20072;-80
2024/01/30 03:43:44;;;;;;;;;;;7.40;83.50;;;;;;4151939;28;19921;-80
2024/01/30 03:45:44;;;;;;;;;;;7.40;83.60;;;;;;4154484;28;19956;-80
2024/01/30 03:47:45;;;;;;;;;;;7.30;83.50;;;;;;4153070;28;19947;-80
2024/01/30 03:49:45;;;;;;;;;;;7.30;83.50;;;;;;4162362;28;19970;-80
2024/01/30 03:51:47;;;;;;;;;;;7.30;83.50;;;;;;4151683;28;19927;-80
2024/01/30 03:53:48;;;;;;;;;;;7.40;83.50;;;;;;4150361;28;19921;-80
2024/01/30 03:55:49;;;;;;;;;;;7.40;83.50;;;;;;4154438;28;19963;-81
2024/01/30 03:57:49;;;;;;;;;;;7.30;83.40;;;;;;4152685;28;19936;-81
2024/01/30 03:59:50;;;;;;;;;;;7.40;83.60;;;;;;4156074;28;20006;-80
2024/01/30 04:01:51;;;;;;;;;;;7.40;83.60;;;;;;4152482;28;19976;-79
2024/01/30 04:03:51;;;;;;;;;;;7.40;83.60;;;;;;4150753;28;19928;-80
2024/01/30 04:05:52;;;;;;;;;;;7.40;83.60;;;;;;4154503;28;20003;-79
2024/01/30 04:07:53;;;;;;;;;;;7.40;83.70;;;;;;4151720;28;19921;-80
2024/01/30 04:09:54;;;;;;;;;;;7.40;83.60;;;;;;4154765;28;20052;-79
2024/01/30 04:11:56;;;;;;;;;;;7.40;83.60;;;;;;4152563;28;20300;-79
2024/01/30 04:13:56;;;;;;;;;;;7.40;83.70;;;;;;4135874;28;19997;-79
2024/01/30 04:15:58;;;;;;;;;;;7.30;83.50;;;;;;4155071;28;19932;-80
2024/01/30 04:17:59;;;;;;;;;;;7.40;84.20;;;;;;4149191;28;21041;-81
2024/01/30 04:19:59;;;;;;;;;;;7.30;83.50;;;;;;4156585;28;19923;-81
2024/01/30 04:22:00;;;;;;;;;;;7.30;83.50;;;;;;4156265;28;19925;-82
2024/01/30 04:24:01;;;;;;;;;;;7.30;83.40;;;;;;4159447;28;19963;-82
2024/01/30 04:26:02;;;;;;;;;;;7.30;83.40;;;;;;4157659;28;19917;-82
2024/01/30 04:28:04;;;;;;;;;;;7.30;83.40;;;;;;4156898;28;20745;-81
2024/01/30 04:30:05;;;;;;;;;;;7.30;83.50;;;;;;4157082;28;19943;-82
2024/01/30 04:32:05;;;;;;;;;;;7.20;83.30;;;;;;4156218;28;19948;-80
2024/01/30 04:34:06;;;;;;;;;;;7.20;83.30;;;;;;4138656;28;20008;-79
2024/01/30 04:36:09;;;;;;;;;;;7.20;83.30;;;;;;4151725;28;19921;-79
2024/01/30 04:38:25;;;;;;;;;;;7.20;83.30;;;;;;4154057;28;19967;-79
2024/01/30 04:40:26;;;;;;;;;;;7.20;83.30;;;;;;4146964;28;19922;-79
2024/01/30 04:42:28;;;;;;;;;;;7.20;83.30;;;;;;4157644;28;19932;-79
2024/01/30 04:44:28;;;;;;;;;;;7.20;84.00;;;;;;4153842;28;19921;-79
2024/01/30 04:46:29;;;;;;;;;;;7.20;83.30;;;;;;4139416;28;19928;-79
2024/01/30 04:48:30;;;;;;;;;;;7.10;83.90;;;;;;4148547;28;20430;-79
2024/01/30 04:50:30;;;;;;;;;;;7.10;83.20;;;;;;4150174;28;20046;-80
2024/01/30 04:52:31;;;;;;;;;;;7.10;83.10;;;;;;4156197;28;20415;-81
2024/01/30 04:54:32;;;;;;;;;;;7.10;83.20;;;;;;4151249;28;19923;-81
2024/01/30 04:56:33;;;;;;;;;;;7.10;83.10;;;;;;4140814;28;20005;-80
2024/01/30 04:58:34;;;;;;;;;;;7.00;83.10;;;;;;4159817;28;19921;-79
2024/01/30 05:00:35;;;;;;;;;;;7.00;83.10;;;;;;4146477;28;19968;-80
2024/01/30 05:02:35;;;;;;;;;;;7.00;83.10;;;;;;4156061;28;20002;-79
2024/01/30 05:04:52;;;;;;;;;;;7.00;83.10;;;;;;4154800;28;19963;-80
2024/01/30 05:07:12;;;;;;;;;;;7.00;83.10;;;;;;4158109;28;19921;-80
2024/01/30 05:09:32;;;;;;;;;;;6.90;83.00;;;;;;4156914;28;19921;-79
2024/01/30 05:11:54;;;;;;;;;;;6.90;83.20;;;;;;4156152;28;19921;-80
2024/01/30 05:14:15;;;;;;;;;;;6.90;83.10;;;;;;4156433;28;20472;-80
2024/01/30 05:16:35;;;;;;;;;;;6.90;83.10;;;;;;4155717;28;19921;-79
2024/01/30 05:18:56;;;;;;;;;;;6.90;83.20;;;;;;4156413;28;19921;-79
2024/01/30 05:21:16;;;;;;;;;;;6.80;83.00;;;;;;4155644;28;20789;-79
2024/01/30 05:23:37;;;;;;;;;;;6.80;83.00;;;;;;4157402;28;19979;-79
2024/01/30 05:25:58;;;;;;;;;;;6.80;83.00;;;;;;4156579;28;20516;-80
2024/01/30 05:28:19;;;;;;;;;;;6.80;83.00;;;;;;4156996;28;20571;-79
2024/01/30 05:30:40;;;;;;;;;;;6.70;83.00;;;;;;4153697;28;20389;-79
2024/01/30 05:32:40;;;;;;;;;;;6.70;83.10;;;;;;4140060;28;20076;-80
2024/01/30 05:34:41;;;;;;;;;;;6.70;82.90;;;;;;4147602;28;19920;-80
2024/01/30 05:36:41;;;;;;;;;;;6.70;83.00;;;;;;4148160;28;20040;-80
2024/01/30 05:38:42;;;;;;;;;;;6.70;83.00;;;;;;4164194;28;19921;-79
2024/01/30 05:40:43;;;;;;;;;;;6.60;82.90;;;;;;4171629;28;19959;-80
2024/01/30 05:42:43;;;;;;;;;;;6.60;82.90;;;;;;4173204;28;19933;-78
2024/01/30 05:44:44;;;;;;;;;;;6.60;82.90;;;;;;4174451;28;20580;-78
2024/01/30 05:46:45;;;;;;;;;;;6.60;82.90;;;;;;4173235;28;19941;-77
2024/01/30 05:48:46;;;;;;;;;;;6.50;82.80;;;;;;4168211;28;19957;-76
2024/01/30 05:50:47;;;;;;;;;;;6.50;82.80;;;;;;4169752;28;19916;-77
2024/01/30 05:52:47;;;;;;;;;;;6.50;82.80;;;;;;4165658;28;19912;-80
2024/01/30 05:54:48;;;;;;;;;;;6.40;82.70;;;;;;4134621;28;19937;-80
2024/01/30 05:56:48;;;;;;;;;;;6.40;82.70;;;;;;4149684;28;21565;-77
2024/01/30 05:58:50;;;;;;;;;;;6.40;82.70;;;;;;4153502;28;19921;-78
2024/01/30 06:00:50;;;;;;;;;;;6.40;82.70;;;;;;4152594;28;20418;-77
2024/01/30 06:02:51;;;;;;;;;;;6.40;82.70;;;;;;4138776;28;19918;-78
2024/01/30 06:04:51;;;;;;;;;;;6.40;82.70;;;;;;4145400;28;19921;-77
2024/01/30 06:06:52;;;;;;;;;;;6.30;82.60;;;;;;4150610;28;19952;-80
2024/01/30 06:08:55;;;;;;;;;;;6.30;82.70;;;;;;4149548;28;19928;-80
2024/01/30 06:10:56;;;;;;;;;;;6.30;82.70;;;;;;4148187;28;20014;-79
2024/01/30 06:12:57;;;;;;;;;;;6.30;82.80;;;;;;4149991;28;20430;-78
2024/01/30 06:14:57;;;;;;;;;;;6.30;82.70;;;;;;4150526;28;19921;-78
2024/01/30 06:16:58;;;;;;;;;;;6.30;82.70;;;;;;4151726;28;19921;-80
2024/01/30 06:19:00;;;;;;;;;;;6.40;82.80;;;;;;4150436;28;20374;-80
2024/01/30 06:21:00;;;;;;;;;;;6.20;82.70;;;;;;4146686;28;19925;-79
2024/01/30 06:23:01;;;;;;;;;;;6.20;82.70;;;;;;4143712;28;20107;-78
2024/01/30 06:25:02;;;;;;;;;;;6.20;82.70;;;;;;4151468;28;19925;-79
2024/01/30 06:27:02;;;;;;;;;;;6.20;82.60;;;;;;4144218;28;20105;-79
2024/01/30 06:29:03;;;;;;;;;;;6.20;82.60;;;;;;4145845;28;19921;-78
2024/01/30 06:31:04;;;;;;;;;;;6.10;82.50;;;;;;4146303;28;19920;-79
2024/01/30 06:33:04;;;;;;;;;;;6.10;82.50;;;;;;4150876;28;20000;-78
2024/01/30 06:35:05;;;;;;;;;;;6.10;82.60;;;;;;4143020;28;20200;-79
2024/01/30 06:37:06;;;;;;;;;;;6.10;82.40;;;;;;4147336;28;19935;-79
2024/01/30 06:39:07;;;;;;;;;;;6.10;82.50;;;;;;4145085;28;19921;-80
2024/01/30 06:41:08;;;;;;;;;;;6.10;82.50;;;;;;4154797;28;20307;-79
2024/01/30 06:43:09;;;;;;;;;;;6.00;82.40;;;;;;4136672;28;19958;-77
2024/01/30 06:45:10;;;;;;;;;;;6.00;82.40;;;;;;4153229;28;19921;-78
2024/01/30 06:47:10;;;;;;;;;;;6.00;82.40;;;;;;4151820;28;19940;-80
2024/01/30 06:49:11;;;;;;;;;;;6.00;82.40;;;;;;4147456;28;20026;-79
2024/01/30 06:51:12;;;;;;;;;;;6.00;82.50;;;;;;4154673;28;20410;-79
2024/01/30 06:53:13;;;;;;;;;;;6.00;82.60;;;;;;4148824;28;20137;-80
2024/01/30 06:55:13;;;;;;;;;;;5.90;82.50;;;;;;4152156;28;19929;-78
2024/01/30 06:57:14;;;;;;;;;;;5.90;82.50;;;;;;4149164;28;20023;-80
2024/01/30 06:59:15;;;;;;;;;;;5.90;82.50;;;;;;4151543;28;19928;-79
2024/01/30 07:01:29;;;;;;;;;;;5.90;82.60;;;;;;4152486;28;20694;-79
2024/01/30 07:03:32;;;;;;;;;;;5.90;82.60;;;;;;4146868;28;20409;-81
2024/01/30 07:05:35;;;;;;;;;;;5.90;82.60;;;;;;4135848;28;19925;-80
2024/01/30 07:07:56;;;;;;;;;;;5.90;82.60;;;;;;4146430;28;20418;-79
2024/01/30 07:09:59;;;;;;;;;;;5.90;82.60;;;;;;4159525;28;20005;-80
2024/01/30 07:12:20;;;;;;;;;;;5.80;82.60;;;;;;4156692;28;19971;-78
2024/01/30 07:14:40;;;;;;;;;;;5.80;82.60;;;;;;4156575;28;19957;-77
2024/01/30 07:17:01;;;;;;;;;;;5.80;82.50;;;;;;4152549;28;19960;-80
2024/01/30 07:19:22;;;;;;;;;;;5.80;82.50;;;;;;4151995;28;19924;-78
2024/01/30 07:21:42;;;;;;;;;;;5.80;82.50;;;;;;4151192;28;20561;-78
2024/01/30 07:24:03;;;;;;;;;;;5.90;82.70;;;;;;4151117;28;20362;-77
2024/01/30 07:26:23;;;;;;;;;;;5.80;82.80;;;;;;4148133;28;20039;-78
2024/01/30 07:28:44;;;;;;;;;;;5.80;83.40;;;;;;4152020;28;19927;-79
2024/01/30 07:30:48;;;;;;;;;;;5.80;82.70;;;;;;4152973;28;20688;-78
2024/01/30 07:32:49;;;;;;;;;;;5.80;82.80;;;;;;4155074;28;19979;-79
2024/01/30 07:34:50;;;;;;;;;;;5.80;82.70;;;;;;4147626;28;20032;-78
2024/01/30 07:36:50;;;;;;;;;;;5.80;82.70;;;;;;4155589;28;19956;-78
2024/01/30 07:38:54;;;;;;;;;;;5.70;83.40;;;;;;4152144;28;19928;-79
2024/01/30 07:40:54;;;;;;;;;;;5.80;82.70;;;;;;4141914;28;19932;-78
2024/01/30 07:42:55;;;;;;;;;;;5.70;82.70;;;;;;4151828;28;20659;-78
2024/01/30 07:44:55;;;;;;;;;;;5.70;82.70;;;;;;4156672;28;19917;-79
2024/01/30 07:46:57;;;;;;;;;;;5.70;82.70;;;;;;4157067;28;19920;-80
2024/01/30 07:48:58;;;;;;;;;;;5.70;82.70;;;;;;4139986;28;19964;-80
2024/01/30 07:51:02;;;;;;;;;;;5.70;82.70;;;;;;4153476;28;19931;-78
2024/01/30 07:53:03;;;;;;;;;;;5.80;82.80;;;;;;4154863;28;19921;-78
2024/01/30 07:55:09;;;;;;;;;;;5.70;82.80;;;;;;4157010;28;19970;-78
2024/01/30 07:57:12;;;;;;;;;;;5.80;82.90;;;;;;4155875;28;19921;-79
2024/01/30 07:59:13;;;;;;;;;;;5.70;82.80;;;;;;4157144;28;20347;-78
2024/01/30 08:01:15;;;;;;;;;;;5.80;82.90;;;;;;4156279;28;20012;-78
2024/01/30 08:03:17;;;;;;;;;;;5.70;83.00;;;;;;4156791;28;20320;-78
2024/01/30 08:05:18;;;;;;;;;;;5.80;83.20;;;;;;4154411;28;19921;-78
2024/01/30 08:07:19;;;;;;;;;;;5.80;83.10;;;;;;4152911;28;19956;-79
2024/01/30 08:09:20;;;;;;;;;;;5.80;83.10;;;;;;4156673;28;19916;-78
2024/01/30 08:11:25;;;;;;;;;;;5.80;83.10;;;;;;4140307;28;19922;-78
2024/01/30 08:13:26;;;;;;;;;;;5.80;83.10;;;;;;4156772;28;20433;-79
2024/01/30 08:15:27;;;;;;;;;;;5.80;83.10;;;;;;4143680;28;21063;-77
2024/01/30 08:17:31;;;;;;;;;;;5.80;83.20;;;;;;4142367;28;19949;-80
2024/01/30 08:19:33;;;;;;;;;;;5.80;83.20;;;;;;4153936;28;19921;-81
2024/01/30 08:21:36;;;;;;;;;;;5.80;83.20;;;;;;4141494;28;19926;-78
2024/01/30 08:23:56;;;;;;;;;;;5.80;83.20;;;;;;4156121;28;19952;-78
2024/01/30 08:26:17;;;;;;;;;;;5.90;83.20;;;;;;4152387;28;20035;-79
2024/01/30 08:28:38;;;;;;;;;;;5.90;83.20;;;;;;4153023;28;20039;-79
2024/01/30 08:30:59;;;;;;;;;;;5.90;83.20;;;;;;4154200;28;20634;-79
2024/01/30 08:33:19;;;;;;;;;;;6.00;83.30;;;;;;4153063;28;20015;-80
2024/01/30 08:35:40;;;;;;;;;;;5.90;83.20;;;;;;4151625;28;20012;-80
2024/01/30 08:38:00;;;;;;;;;;;5.90;83.20;;;;;;4153298;28;19928;-80
2024/01/30 08:40:15;;;;;;;;;;;6.00;83.30;;;;;;4151040;28;19939;-78
2024/01/30 08:42:36;;;;;;;;;;;6.00;83.30;;;;;;4160722;28;20743;-81
2024/01/30 08:44:37;;;;;;;;;;;6.00;83.30;;;;;;4156593;28;19917;-81
2024/01/30 08:46:57;;;;;;;;;;;6.00;83.30;;;;;;4157070;28;19913;-79
2024/01/30 08:49:18;;;;;;;;;;;6.00;83.30;;;;;;4159154;28;20321;-78
2024/01/30 08:51:41;;;;;;;;;;;6.10;83.40;;;;;;4155382;28;19967;-81
2024/01/30 08:54:02;;;;;;;;;;;6.10;83.40;;;;;;4157010;28;19921;-79
2024/01/30 08:56:23;;;;;;;;;;;6.10;83.40;;;;;;4161249;28;20310;-80
2024/01/30 08:58:43;;;;;;;;;;;6.10;83.40;;;;;;4156480;28;20364;-78
2024/01/30 09:01:05;;;;;;;;;;;6.20;83.50;;;;;;4156629;28;20434;-79
2024/01/30 09:03:26;;;;;;;;;;;6.20;83.50;;;;;;4165876;28;20397;-79
2024/01/30 09:05:46;;;;;;;;;;;6.20;83.60;;;;;;4161908;28;20874;-80
2024/01/30 09:07:48;;;;;;;;;;;6.20;83.50;;;;;;4160572;28;19956;-78
2024/01/30 09:10:10;;;;;;;;;;;6.30;83.50;;;;;;4163206;28;19927;-79
2024/01/30 09:12:30;;;;;;;;;;;6.30;83.40;;;;;;4156096;28;19917;-77
2024/01/30 09:14:51;;;;;;;;;;;6.30;83.50;;;;;;4154203;28;20044;-78
2024/01/30 09:17:12;;;;;;;;;;;6.30;83.50;;;;;;4163452;28;20397;-79
2024/01/30 09:19:32;;;;;;;;;;;6.40;83.50;;;;;;4159475;28;20357;-78
2024/01/30 09:21:53;;;;;;;;;;;6.40;83.50;;;;;;4164591;28;19931;-78
2024/01/30 09:24:14;;;;;;;;;;;6.40;83.50;;;;;;4163220;28;19916;-79
2024/01/30 09:26:34;;;;;;;;;;;6.40;83.40;;;;;;4160080;28;19917;-79
2024/01/30 09:28:55;;;;;;;;;;;6.40;83.40;;;;;;4163636;28;20783;-79
2024/01/30 09:31:15;;;;;;;;;;;6.40;83.40;;;;;;4157697;28;19917;-80
2024/01/30 09:33:36;;;;;;;;;;;6.50;83.40;;;;;;4159218;28;19971;-79
2024/01/30 09:35:57;;;;;;;;;;;6.50;83.30;;;;;;4153719;28;20497;-79
2024/01/30 09:38:17;;;;;;;;;;;6.50;83.40;;;;;;4154355;28;20015;-78
2024/01/30 09:40:38;;;;;;;;;;;6.50;83.30;;;;;;4158465;28;20290;-78
2024/01/30 09:42:59;;;;;;;;;;;6.60;83.40;;;;;;4162946;28;19960;-79
2024/01/30 09:45:23;;;;;;;;;;;6.70;83.40;;;;;;4158755;28;19939;-79
2024/01/30 09:47:46;;;;;;;;;;;6.60;83.30;;;;;;4153098;28;19921;-78
2024/01/30 09:50:07;;;;;;;;;;;6.60;83.30;;;;;;4147811;28;19944;-78
2024/01/30 09:52:27;;;;;;;;;;;6.70;83.30;;;;;;4163756;28;19921;-78
2024/01/30 09:54:50;;;;;;;;;;;6.80;83.30;;;;;;4163177;28;20286;-79
2024/01/30 09:57:11;;;;;;;;;;;6.70;83.30;;;;;;4158530;28;20284;-79
2024/01/30 09:59:34;;;;;;;;;;;6.80;83.40;;;;;;4160232;28;20383;-79
2024/01/30 10:01:56;;;;;;;;;;;6.80;83.40;;;;;;4162689;28;20332;-79
2024/01/30 10:04:17;;;;;;;;;;;6.80;83.30;;;;;;4158653;28;19921;-79
2024/01/30 10:06:38;;;;;;;;;;;6.80;83.40;;;;;;4158740;28;19956;-78
2024/01/30 10:08:58;;;;;;;;;;;6.90;83.50;;;;;;4161909;28;19917;-79
2024/01/30 10:11:19;;;;;;;;;;;7.00;83.50;;;;;;4161057;28;20583;-78
2024/01/30 10:13:40;;;;;;;;;;;7.20;83.60;;;;;;4156675;28;20416;-79
2024/01/30 10:16:02;;;;;;;;;;;7.10;83.50;;;;;;4161356;28;19921;-78
2024/01/30 10:18:27;;;;;;;;;;;7.00;83.50;;;;;;4160425;28;19972;-79
2024/01/30 10:20:48;;;;;;;;;;;7.10;83.70;;;;;;4162872;28;20390;-79
2024/01/30 10:23:09;;;;;;;;;;;7.10;83.60;;;;;;4165255;28;19983;-80
2024/01/30 10:25:32;;;;;;;;;;;7.20;83.70;;;;;;4164509;28;20349;-78
2024/01/30 10:27:56;;;;;;;;;;;7.20;83.80;;;;;;4159629;28;19923;-80
2024/01/30 10:30:17;;;;;;;;;;;7.20;83.50;;;;;;4156402;28;19927;-79
2024/01/30 10:32:38;;;;;;;;;;;7.30;83.70;;;;;;4159291;28;19951;-80
2024/01/30 10:34:59;;;;;;;;;;;7.30;83.60;;;;;;4156579;28;19921;-80
2024/01/30 10:37:21;;;;;;;;;;;7.30;83.70;;;;;;4160701;28;19921;-81
2024/01/30 10:39:42;;;;;;;;;;;7.40;83.70;;;;;;4151802;28;21960;-80
2024/01/30 10:41:46;;;;;;;;;;;7.40;84.40;;;;;;4145595;28;20531;-81
2024/01/30 10:43:55;;;;;;;;;;;7.40;83.70;;;;;;4137531;28;19917;-81
2024/01/30 10:45:57;;;;;;;;;;;7.50;83.60;;;;;;4155880;28;19924;-81
2024/01/30 10:48:01;;;;;;;;;;;7.50;83.70;;;;;;4155555;28;20402;-81
2024/01/30 10:50:03;;;;;;;;;;;7.50;83.60;;;;;;4158523;28;20378;-80
2024/01/30 10:52:05;;;;;;;;;;;7.50;83.50;;;;;;4151571;28;19924;-78
2024/01/30 10:54:08;;;;;;;;;;;7.50;83.40;;;;;;4140662;28;20209;-80
2024/01/30 10:56:10;;;;;;;;;;;7.60;83.50;;;;;;4156642;28;20477;-80
2024/01/30 10:58:11;;;;;;;;;;;7.50;83.40;;;;;;4160782;28;19916;-78
2024/01/30 11:00:34;;;;;;;;;;;7.50;83.40;;;;;;4156193;28;20454;-80
2024/01/30 11:02:45;;;;;;;;;;;7.60;83.50;;;;;;4154774;28;19933;-80
2024/01/30 11:05:06;;;;;;;;;;;7.60;83.40;;;;;;4157876;28;19991;-79
2024/01/30 11:07:29;;;;;;;;;;;7.70;83.50;;;;;;4160302;28;19952;-78
2024/01/30 11:09:50;;;;;;;;;;;7.70;83.40;;;;;;4158431;28;19938;-78
2024/01/30 11:12:12;;;;;;;;;;;7.70;84.10;;;;;;4157607;28;20128;-79
2024/01/30 11:14:33;;;;;;;;;;;7.70;83.30;;;;;;4162196;28;19917;-81
2024/01/30 11:16:56;;;;;;;;;;;7.70;83.20;;;;;;4159882;28;19917;-78
2024/01/30 11:19:27;;;;;;;;;;;7.80;83.30;;;;;;4154474;28;19921;-79
2024/01/30 11:21:49;;;;;;;;;;;7.80;83.20;;;;;;4162106;28;20645;-80
2024/01/30 11:24:11;;;;;;;;;;;7.80;83.20;;;;;;4150497;28;20333;-78
2024/01/30 11:26:31;;;;;;;;;;;7.80;83.20;;;;;;4152885;28;19924;-79
2024/01/30 11:28:52;;;;;;;;;;;7.80;83.10;;;;;;4159881;28;20390;-79
2024/01/30 11:31:18;;;;;;;;;;;7.80;83.10;;;;;;4162213;28;19921;-78
2024/01/30 11:33:39;;;;;;;;;;;7.80;83.00;;;;;;4161185;28;20444;-78
2024/01/30 11:36:00;;;;;;;;;;;7.80;83.00;;;;;;4157227;28;19921;-79
2024/01/30 11:38:21;;;;;;;;;;;7.90;82.90;;;;;;4158414;28;19971;-79
2024/01/30 11:40:43;;;;;;;;;;;7.90;82.80;;;;;;4163094;28;19917;-79
2024/01/30 11:43:04;;;;;;;;;;;7.90;82.70;;;;;;4158478;28;19921;-79
2024/01/30 11:45:26;;;;;;;;;;;7.90;82.80;;;;;;4155813;28;19968;-79
2024/01/30 11:47:47;;;;;;;;;;;7.90;82.80;;;;;;4153712;28;19929;-79
2024/01/30 11:50:10;;;;;;;;;;;8.00;82.80;;;;;;4156042;28;20442;-77
2024/01/30 11:52:31;;;;;;;;;;;8.00;82.80;;;;;;4155638;28;20003;-79
2024/01/30 11:54:52;;;;;;;;;;;8.00;82.70;;;;;;4159915;28;19959;-79
2024/01/30 11:57:12;;;;;;;;;;;8.00;82.70;;;;;;4149282;28;20067;-77
2024/01/30 11:59:33;;;;;;;;;;;8.00;82.70;;;;;;4148864;28;19940;-79
2024/01/30 12:01:56;;;;;;;;;;;8.00;82.70;;;;;;4164571;28;20074;-79
2024/01/30 12:04:17;;;;;;;;;;;8.00;82.70;;;;;;4161538;28;19916;-79
2024/01/30 12:06:40;;;;;;;;;;;8.00;82.60;;;;;;4159847;28;20287;-80
2024/01/30 12:09:04;;;;;;;;;;;8.10;82.70;;;;;;4160949;28;19917;-81
2024/01/30 12:11:24;;;;;;;;;;;8.00;82.60;;;;;;4158525;28;19921;-80
2024/01/30 12:13:45;;;;;;;;;;;8.10;82.60;;;;;;4158486;28;19924;-78
2024/01/30 12:16:06;;;;;;;;;;;8.10;82.60;;;;;;4157427;28;19927;-79
2024/01/30 12:18:26;;;;;;;;;;;8.10;82.50;;;;;;4159519;28;20438;-78
2024/01/30 12:20:56;;;;;;;;;;;8.10;82.60;;;;;;4160275;28;20004;-80
2024/01/30 12:23:19;;;;;;;;;;;8.10;82.50;;;;;;4161292;28;20003;-80
2024/01/30 12:25:41;;;;;;;;;;;8.10;82.50;;;;;;4156114;28;20388;-79
2024/01/30 12:28:02;;;;;;;;;;;8.20;82.60;;;;;;4155466;28;20631;-78
2024/01/30 12:30:23;;;;;;;;;;;8.20;82.50;;;;;;4156559;28;19928;-78
2024/01/30 12:32:44;;;;;;;;;;;8.20;82.50;;;;;;4150977;28;19921;-79
2024/01/30 12:35:15;;;;;;;;;;;8.20;82.40;;;;;;4155303;28;20283;-79
2024/01/30 12:37:35;;;;;;;;;;;8.20;82.40;;;;;;4158978;28;19924;-80
2024/01/30 12:39:56;;;;;;;;;;;8.20;82.50;;;;;;4161332;28;19928;-79
2024/01/30 12:42:17;;;;;;;;;;;8.20;82.40;;;;;;4155998;28;19924;-79
2024/01/30 12:44:37;;;;;;;;;;;8.40;82.50;;;;;;4159008;28;19917;-79
2024/01/30 12:46:57;;;;;;;;;;;8.30;82.40;;;;;;4159238;28;19923;-79
2024/01/30 12:48:58;;;;;;;;;;;8.20;82.90;;;;;;4143422;28;19917;-79
2024/01/30 12:50:59;;;;;;;;;;;8.30;82.30;;;;;;4160058;28;19921;-79
2024/01/30 12:53:00;;;;;;;;;;;8.30;82.30;;;;;;4146049;28;19927;-80
2024/01/30 12:55:01;;;;;;;;;;;8.30;82.30;;;;;;4160830;28;20023;-81
2024/01/30 12:57:02;;;;;;;;;;;8.30;82.10;;;;;;4154563;28;21629;-79